sensor_id;sensor_type;location;lat;lon;timestamp;pressure;altitude;pressure_sealevel;temperature;humidity
76205;BME280;64986;55.672;37.628;2023-02-27T00:00:22;98741.22;;;-2.97;66.33
76205;BME280;64986;55.672;37.628;2023-02-27T00:02:50;98745.13;;;-2.74;66.08
76205;BME280;64986;55.672;37.628;2023-02-27T00:05:16;98722.34;;;-2.69;65.47
76205;BME280;64986;55.672;37.628;2023-02-27T00:07:42;98730.25;;;-2.99;66.29
76205;BME280;64986;55.672;37.628;2023-02-27T00:10:09;98743.50;;;-2.75;65.22
76205;BME280;64986;55.672;37.628;2023-02-27T00:12:34;98741.84;;;-2.66;65.44
76205;BME280;64986;55.672;37.628;2023-02-27T00:17:31;98726.19;;;-3.12;66.34
76205;BME280;64986;55.672;37.628;2023-02-27T00:19:57;98743.50;;;-2.75;65.62
76205;BME280;64986;55.672;37.628;2023-02-27T00:22:22;98758.94;;;-2.75;65.46
76205;BME280;64986;55.672;37.628;2023-02-27T00:24:48;98743.63;;;-2.67;64.66
76205;BME280;64986;55.672;37.628;2023-02-27T00:27:13;98743.97;;;-3.09;65.74
76205;BME280;64986;55.672;37.628;2023-02-27T00:29:39;98769.53;;;-2.88;65.72
76205;BME280;64986;55.672;37.628;2023-02-27T00:32:04;98757.31;;;-2.66;64.41
76205;BME280;64986;55.672;37.628;2023-02-27T00:34:30;98775.19;;;-2.65;64.31
76205;BME280;64986;55.672;37.628;2023-02-27T00:36:55;98754.06;;;-2.88;64.67
76205;BME280;64986;55.672;37.628;2023-02-27T00:39:21;98799.06;;;-2.82;64.76
76205;BME280;64986;55.672;37.628;2023-02-27T00:41:46;98776.72;;;-3.11;64.99
76205;BME280;64986;55.672;37.628;2023-02-27T00:44:12;98807.47;;;-2.80;64.53
76205;BME280;64986;55.672;37.628;2023-02-27T00:46:37;98798.13;;;-2.71;64.02
76205;BME280;64986;55.672;37.628;2023-02-27T00:49:03;98777.50;;;-2.62;63.83
76205;BME280;64986;55.672;37.628;2023-02-27T00:51:28;98783.91;;;-2.75;63.50
76205;BME280;64986;55.672;37.628;2023-02-27T00:53:54;98768.47;;;-3.04;64.68
76205;BME280;64986;55.672;37.628;2023-02-27T00:56:19;98783.78;;;-3.13;65.11
76205;BME280;64986;55.672;37.628;2023-02-27T00:58:45;98784.34;;;-3.09;63.74
76205;BME280;64986;55.672;37.628;2023-02-27T01:01:10;98800.84;;;-3.12;64.53
76205;BME280;64986;55.672;37.628;2023-02-27T01:03:36;98782.69;;;-3.29;64.71
76205;BME280;64986;55.672;37.628;2023-02-27T01:06:02;98810.72;;;-3.36;65.70
76205;BME280;64986;55.672;37.628;2023-02-27T01:08:27;98813.03;;;-3.14;65.12
76205;BME280;64986;55.672;37.628;2023-02-27T01:10:54;98843.63;;;-3.20;64.76
76205;BME280;64986;55.672;37.628;2023-02-27T01:13:20;98795.56;;;-3.20;64.64
76205;BME280;64986;55.672;37.628;2023-02-27T01:15:46;98832.81;;;-3.04;64.86
76205;BME280;64986;55.672;37.628;2023-02-27T01:18:11;98800.84;;;-3.21;65.04
76205;BME280;64986;55.672;37.628;2023-02-27T01:20:37;98826.69;;;-3.32;65.41
76205;BME280;64986;55.672;37.628;2023-02-27T01:23:02;98825.78;;;-3.02;64.64
76205;BME280;64986;55.672;37.628;2023-02-27T01:25:28;98840.00;;;-2.98;64.53
76205;BME280;64986;55.672;37.628;2023-02-27T01:27:53;98817.53;;;-2.87;64.50
76205;BME280;64986;55.672;37.628;2023-02-27T01:30:19;98833.78;;;-3.15;64.45
76205;BME280;64986;55.672;37.628;2023-02-27T01:32:44;98847.03;;;-3.20;64.53
76205;BME280;64986;55.672;37.628;2023-02-27T01:35:10;98844.78;;;-3.53;65.00
76205;BME280;64986;55.672;37.628;2023-02-27T01:37:37;98842.88;;;-3.61;64.63
76205;BME280;64986;55.672;37.628;2023-02-27T01:40:03;98847.41;;;-3.34;63.93
76205;BME280;64986;55.672;37.628;2023-02-27T01:42:29;98881.72;;;-3.04;63.74
76205;BME280;64986;55.672;37.628;2023-02-27T01:47:56;98855.59;;;-3.10;63.48
76205;BME280;64986;55.672;37.628;2023-02-27T01:50:23;98844.47;;;-3.10;62.74
76205;BME280;64986;55.672;37.628;2023-02-27T01:52:53;98856.50;;;-3.20;63.65
76205;BME280;64986;55.672;37.628;2023-02-27T01:55:20;98893.28;;;-2.89;62.77
76205;BME280;64986;55.672;37.628;2023-02-27T01:57:48;98885.41;;;-2.97;62.51
76205;BME280;64986;55.672;37.628;2023-02-27T02:00:15;98882.97;;;-2.99;62.95
76205;BME280;64986;55.672;37.628;2023-02-27T02:02:45;98884.16;;;-3.03;63.32
76205;BME280;64986;55.672;37.628;2023-02-27T02:05:12;98898.84;;;-3.44;64.08
76205;BME280;64986;55.672;37.628;2023-02-27T02:07:39;98892.84;;;-3.54;65.13
76205;BME280;64986;55.672;37.628;2023-02-27T02:10:06;98892.75;;;-3.43;65.67
76205;BME280;64986;55.672;37.628;2023-02-27T02:12:36;98910.28;;;-3.57;66.15
76205;BME280;64986;55.672;37.628;2023-02-27T02:15:04;98904.38;;;-3.48;65.56
76205;BME280;64986;55.672;37.628;2023-02-27T02:17:50;98922.50;;;-3.50;65.46
76205;BME280;64986;55.672;37.628;2023-02-27T02:42:02;98960.78;;;-3.26;66.06
76205;BME280;64986;55.672;37.628;2023-02-27T02:44:38;98968.09;;;-3.31;65.58
76205;BME280;64986;55.672;37.628;2023-02-27T02:52:50;98977.44;;;-3.30;65.16
76205;BME280;64986;55.672;37.628;2023-02-27T02:58:06;98987.13;;;-3.43;66.06
76205;BME280;64986;55.672;37.628;2023-02-27T03:00:37;98997.78;;;-3.48;66.65
76205;BME280;64986;55.672;37.628;2023-02-27T03:03:15;98989.97;;;-3.46;66.61
76205;BME280;64986;55.672;37.628;2023-02-27T03:05:49;99001.13;;;-3.57;67.02
76205;BME280;64986;55.672;37.628;2023-02-27T03:08:21;99006.91;;;-3.65;67.55
76205;BME280;64986;55.672;37.628;2023-02-27T03:10:58;99013.94;;;-3.67;67.28
76205;BME280;64986;55.672;37.628;2023-02-27T03:13:28;99009.13;;;-3.81;67.31
76205;BME280;64986;55.672;37.628;2023-02-27T03:18:39;99033.16;;;-3.40;66.88
76205;BME280;64986;55.672;37.628;2023-02-27T03:21:10;99041.06;;;-3.63;66.58
76205;BME280;64986;55.672;37.628;2023-02-27T03:23:43;99047.94;;;-3.42;65.47
76205;BME280;64986;55.672;37.628;2023-02-27T03:26:10;99042.41;;;-3.17;65.02
76205;BME280;64986;55.672;37.628;2023-02-27T03:28:47;99056.13;;;-3.27;65.12
76205;BME280;64986;55.672;37.628;2023-02-27T03:31:17;99043.53;;;-3.72;66.28
76205;BME280;64986;55.672;37.628;2023-02-27T03:33:48;99078.69;;;-3.61;66.52
76205;BME280;64986;55.672;37.628;2023-02-27T03:36:27;99046.16;;;-3.42;66.36
76205;BME280;64986;55.672;37.628;2023-02-27T03:39:05;99072.38;;;-3.27;66.20
76205;BME280;64986;55.672;37.628;2023-02-27T03:42:05;99084.44;;;-3.27;64.96
76205;BME280;64986;55.672;37.628;2023-02-27T03:44:51;99117.78;;;-3.26;65.51
76205;BME280;64986;55.672;37.628;2023-02-27T03:47:21;99106.97;;;-3.61;66.51
76205;BME280;64986;55.672;37.628;2023-02-27T03:49:47;99105.53;;;-3.33;66.18
76205;BME280;64986;55.672;37.628;2023-02-27T03:52:17;99094.22;;;-3.84;67.37
76205;BME280;64986;55.672;37.628;2023-02-27T03:54:49;99100.22;;;-3.63;66.98
76205;BME280;64986;55.672;37.628;2023-02-27T03:57:18;99133.19;;;-3.68;66.70
76205;BME280;64986;55.672;37.628;2023-02-27T03:59:43;99122.06;;;-3.36;66.10
76205;BME280;64986;55.672;37.628;2023-02-27T04:02:10;99103.78;;;-3.33;66.11
76205;BME280;64986;55.672;37.628;2023-02-27T04:04:35;99112.13;;;-3.61;66.61
76205;BME280;64986;55.672;37.628;2023-02-27T04:07:10;99121.69;;;-3.64;67.29
76205;BME280;64986;55.672;37.628;2023-02-27T04:15:36;99137.84;;;-3.41;66.31
76205;BME280;64986;55.672;37.628;2023-02-27T04:18:31;99147.09;;;-3.38;66.39
76205;BME280;64986;55.672;37.628;2023-02-27T04:21:08;99138.38;;;-3.47;66.29
76205;BME280;64986;55.672;37.628;2023-02-27T04:23:55;99141.41;;;-3.74;67.47
76205;BME280;64986;55.672;37.628;2023-02-27T04:26:32;99144.16;;;-3.66;66.82
76205;BME280;64986;55.672;37.628;2023-02-27T04:31:44;99148.16;;;-3.73;67.57
76205;BME280;64986;55.672;37.628;2023-02-27T04:34:17;99159.66;;;-3.56;67.43
76205;BME280;64986;55.672;37.628;2023-02-27T04:36:51;99177.78;;;-3.46;66.86
76205;BME280;64986;55.672;37.628;2023-02-27T04:39:36;99170.06;;;-3.46;66.99
76205;BME280;64986;55.672;37.628;2023-02-27T04:42:05;99167.47;;;-3.25;67.05
76205;BME280;64986;55.672;37.628;2023-02-27T04:44:35;99208.78;;;-3.91;68.08
76205;BME280;64986;55.672;37.628;2023-02-27T04:47:05;99186.59;;;-3.71;68.15
76205;BME280;64986;55.672;37.628;2023-02-27T04:49:40;99179.94;;;-3.63;67.06
76205;BME280;64986;55.672;37.628;2023-02-27T04:52:22;99198.31;;;-3.67;67.78
76205;BME280;64986;55.672;37.628;2023-02-27T04:55:05;99207.66;;;-3.34;66.51
76205;BME280;64986;55.672;37.628;2023-02-27T04:57:36;99176.91;;;-3.68;67.68
76205;BME280;64986;55.672;37.628;2023-02-27T05:00:05;99193.16;;;-3.35;66.83
76205;BME280;64986;55.672;37.628;2023-02-27T05:02:50;99201.06;;;-3.27;67.06
76205;BME280;64986;55.672;37.628;2023-02-27T05:05:21;99197.63;;;-3.48;67.56
76205;BME280;64986;55.672;37.628;2023-02-27T05:07:55;99199.38;;;-3.38;66.66
76205;BME280;64986;55.672;37.628;2023-02-27T05:10:32;99215.75;;;-3.18;67.05
76205;BME280;64986;55.672;37.628;2023-02-27T05:13:08;99209.06;;;-3.41;67.24
76205;BME280;64986;55.672;37.628;2023-02-27T05:15:46;99215.00;;;-3.61;67.88
76205;BME280;64986;55.672;37.628;2023-02-27T05:18:16;99220.28;;;-3.31;67.30
76205;BME280;64986;55.672;37.628;2023-02-27T05:26:17;99265.25;;;-3.46;68.37
76205;BME280;64986;55.672;37.628;2023-02-27T05:28:54;99238.09;;;-3.39;67.50
76205;BME280;64986;55.672;37.628;2023-02-27T05:31:44;99228.50;;;-3.48;68.48
76205;BME280;64986;55.672;37.628;2023-02-27T05:36:52;99243.94;;;-3.48;67.98
76205;BME280;64986;55.672;37.628;2023-02-27T05:39:22;99246.56;;;-3.16;67.06
76205;BME280;64986;55.672;37.628;2023-02-27T05:41:56;99241.69;;;-3.30;67.61
76205;BME280;64986;55.672;37.628;2023-02-27T05:44:34;99266.19;;;-3.47;68.38
76205;BME280;64986;55.672;37.628;2023-02-27T05:47:07;99259.31;;;-3.26;67.27
76205;BME280;64986;55.672;37.628;2023-02-27T05:49:52;99262.56;;;-3.56;68.61
76205;BME280;64986;55.672;37.628;2023-02-27T05:52:22;99274.00;;;-3.38;67.92
76205;BME280;64986;55.672;37.628;2023-02-27T05:57:19;99289.56;;;-3.39;67.76
76205;BME280;64986;55.672;37.628;2023-02-27T06:03:08;99291.53;;;-3.31;68.15
76205;BME280;64986;55.672;37.628;2023-02-27T06:05:36;99291.25;;;-3.60;68.36
76205;BME280;64986;55.672;37.628;2023-02-27T06:08:02;99290.94;;;-3.35;68.15
76205;BME280;64986;55.672;37.628;2023-02-27T06:10:28;99297.84;;;-3.36;68.80
76205;BME280;64986;55.672;37.628;2023-02-27T06:12:53;99305.41;;;-3.23;67.92
76205;BME280;64986;55.672;37.628;2023-02-27T06:15:19;99294.19;;;-3.33;68.47
76205;BME280;64986;55.672;37.628;2023-02-27T06:17:44;99308.22;;;-3.26;67.73
76205;BME280;64986;55.672;37.628;2023-02-27T06:20:10;99283.41;;;-3.59;68.80
76205;BME280;64986;55.672;37.628;2023-02-27T06:22:36;99315.72;;;-3.23;68.07
76205;BME280;64986;55.672;37.628;2023-02-27T06:25:02;99328.78;;;-3.15;67.54
76205;BME280;64986;55.672;37.628;2023-02-27T06:27:27;99306.47;;;-3.25;67.18
76205;BME280;64986;55.672;37.628;2023-02-27T06:29:53;99332.88;;;-3.12;67.78
76205;BME280;64986;55.672;37.628;2023-02-27T06:32:20;99313.69;;;-3.08;67.11
76205;BME280;64986;55.672;37.628;2023-02-27T06:34:45;99325.47;;;-3.05;67.82
76205;BME280;64986;55.672;37.628;2023-02-27T06:37:11;99312.94;;;-2.99;67.10
76205;BME280;64986;55.672;37.628;2023-02-27T06:39:37;99322.03;;;-2.95;67.09
76205;BME280;64986;55.672;37.628;2023-02-27T06:42:03;99325.00;;;-2.99;67.12
76205;BME280;64986;55.672;37.628;2023-02-27T06:44:28;99327.97;;;-2.83;67.46
76205;BME280;64986;55.672;37.628;2023-02-27T06:46:54;99346.16;;;-2.96;67.59
76205;BME280;64986;55.672;37.628;2023-02-27T06:49:20;99340.69;;;-3.02;67.49
76205;BME280;64986;55.672;37.628;2023-02-27T06:51:46;99367.41;;;-2.71;66.35
76205;BME280;64986;55.672;37.628;2023-02-27T06:54:11;99384.00;;;-3.08;67.50
76205;BME280;64986;55.672;37.628;2023-02-27T06:56:37;99378.94;;;-2.66;66.11
76205;BME280;64986;55.672;37.628;2023-02-27T06:59:03;99345.03;;;-2.71;65.65
76205;BME280;64986;55.672;37.628;2023-02-27T07:01:28;99344.38;;;-2.84;66.70
76205;BME280;64986;55.672;37.628;2023-02-27T07:03:54;99344.66;;;-2.98;66.71
76205;BME280;64986;55.672;37.628;2023-02-27T07:06:19;99366.47;;;-2.82;67.19
76205;BME280;64986;55.672;37.628;2023-02-27T07:08:45;99356.13;;;-3.02;67.33
76205;BME280;64986;55.672;37.628;2023-02-27T07:11:10;99355.94;;;-2.78;66.89
76205;BME280;64986;55.672;37.628;2023-02-27T07:13:36;99378.25;;;-2.68;66.33
76205;BME280;64986;55.672;37.628;2023-02-27T07:16:02;99364.28;;;-2.86;66.41
76205;BME280;64986;55.672;37.628;2023-02-27T07:18:27;99368.84;;;-2.58;65.76
76205;BME280;64986;55.672;37.628;2023-02-27T07:20:53;99361.81;;;-2.56;65.76
76205;BME280;64986;55.672;37.628;2023-02-27T07:23:20;99348.22;;;-2.58;66.23
76205;BME280;64986;55.672;37.628;2023-02-27T07:25:46;99369.44;;;-2.86;67.04
76205;BME280;64986;55.672;37.628;2023-02-27T07:28:12;99378.22;;;-2.57;66.48
76205;BME280;64986;55.672;37.628;2023-02-27T07:30:38;99370.13;;;-2.31;65.60
76205;BME280;64986;55.672;37.628;2023-02-27T07:33:04;99379.00;;;-2.24;65.78
76205;BME280;64986;55.672;37.628;2023-02-27T07:35:30;99374.03;;;-2.16;65.19
76205;BME280;64986;55.672;37.628;2023-02-27T07:37:56;99386.78;;;-2.35;66.29
76205;BME280;64986;55.672;37.628;2023-02-27T07:40:21;99391.44;;;-2.29;65.99
76205;BME280;64986;55.672;37.628;2023-02-27T07:42:47;99375.78;;;-2.16;65.25
76205;BME280;64986;55.672;37.628;2023-02-27T07:45:13;99394.06;;;-1.99;64.26
76205;BME280;64986;55.672;37.628;2023-02-27T07:47:39;99385.97;;;-2.15;65.52
76205;BME280;64986;55.672;37.628;2023-02-27T07:50:05;99398.28;;;-1.98;65.27
76205;BME280;64986;55.672;37.628;2023-02-27T07:52:31;99397.72;;;-1.80;64.61
76205;BME280;64986;55.672;37.628;2023-02-27T07:54:57;99400.69;;;-2.27;65.12
76205;BME280;64986;55.672;37.628;2023-02-27T07:57:22;99401.81;;;-2.19;65.31
76205;BME280;64986;55.672;37.628;2023-02-27T07:59:48;99401.06;;;-2.31;65.54
76205;BME280;64986;55.672;37.628;2023-02-27T08:02:13;99416.69;;;-2.44;64.73
76205;BME280;64986;55.672;37.628;2023-02-27T08:04:39;99410.47;;;-2.73;65.97
76205;BME280;64986;55.672;37.628;2023-02-27T08:07:05;99397.91;;;-2.14;64.27
76205;BME280;64986;55.672;37.628;2023-02-27T08:09:30;99424.91;;;-2.18;64.21
76205;BME280;64986;55.672;37.628;2023-02-27T08:11:57;99416.78;;;-2.34;64.46
76205;BME280;64986;55.672;37.628;2023-02-27T08:14:23;99443.69;;;-2.27;64.89
76205;BME280;64986;55.672;37.628;2023-02-27T08:16:48;99428.84;;;-2.14;63.54
76205;BME280;64986;55.672;37.628;2023-02-27T08:19:14;99445.59;;;-1.87;62.95
76205;BME280;64986;55.672;37.628;2023-02-27T08:21:40;99438.28;;;-2.24;63.78
76205;BME280;64986;55.672;37.628;2023-02-27T08:24:06;99443.19;;;-2.21;62.99
76205;BME280;64986;55.672;37.628;2023-02-27T08:26:31;99450.31;;;-1.92;62.62
76205;BME280;64986;55.672;37.628;2023-02-27T08:28:57;99456.38;;;-2.03;63.20
76205;BME280;64986;55.672;37.628;2023-02-27T08:31:23;99459.75;;;-1.82;61.96
76205;BME280;64986;55.672;37.628;2023-02-27T08:33:49;99456.91;;;-2.20;62.75
76205;BME280;64986;55.672;37.628;2023-02-27T08:36:14;99453.59;;;-1.90;62.03
76205;BME280;64986;55.672;37.628;2023-02-27T08:38:40;99448.41;;;-1.70;61.70
76205;BME280;64986;55.672;37.628;2023-02-27T08:41:06;99454.91;;;-1.75;61.48
76205;BME280;64986;55.672;37.628;2023-02-27T08:43:31;99449.25;;;-1.38;61.27
76205;BME280;64986;55.672;37.628;2023-02-27T08:45:57;99462.81;;;-1.67;61.44
76205;BME280;64986;55.672;37.628;2023-02-27T08:48:22;99461.13;;;-1.57;61.72
76205;BME280;64986;55.672;37.628;2023-02-27T08:50:49;99450.06;;;-1.69;62.15
76205;BME280;64986;55.672;37.628;2023-02-27T08:53:15;99452.47;;;-1.16;60.60
76205;BME280;64986;55.672;37.628;2023-02-27T08:55:41;99452.72;;;-1.80;61.97
76205;BME280;64986;55.672;37.628;2023-02-27T08:58:08;99464.88;;;-1.40;61.18
76205;BME280;64986;55.672;37.628;2023-02-27T09:00:33;99476.19;;;-1.31;60.65
76205;BME280;64986;55.672;37.628;2023-02-27T09:02:59;99477.41;;;-1.35;60.00
76205;BME280;64986;55.672;37.628;2023-02-27T09:05:26;99461.97;;;-1.47;60.76
76205;BME280;64986;55.672;37.628;2023-02-27T09:07:52;99487.69;;;-1.66;60.21
76205;BME280;64986;55.672;37.628;2023-02-27T09:10:17;99481.66;;;-1.76;61.28
76205;BME280;64986;55.672;37.628;2023-02-27T09:12:43;99468.25;;;-1.70;61.41
76205;BME280;64986;55.672;37.628;2023-02-27T09:15:09;99503.41;;;-1.90;60.85
76205;BME280;64986;55.672;37.628;2023-02-27T09:17:35;99508.22;;;-1.85;61.20
76205;BME280;64986;55.672;37.628;2023-02-27T09:20:02;99512.03;;;-2.01;61.86
76205;BME280;64986;55.672;37.628;2023-02-27T09:22:29;99511.91;;;-1.78;60.41
76205;BME280;64986;55.672;37.628;2023-02-27T09:24:54;99482.44;;;-2.17;62.30
76205;BME280;64986;55.672;37.628;2023-02-27T09:27:20;99515.31;;;-1.78;61.45
76205;BME280;64986;55.672;37.628;2023-02-27T09:29:48;99554.28;;;-1.60;61.27
76205;BME280;64986;55.672;37.628;2023-02-27T09:32:22;99522.63;;;-1.62;60.37
76205;BME280;64986;55.672;37.628;2023-02-27T09:34:48;99516.22;;;-1.88;61.07
76205;BME280;64986;55.672;37.628;2023-02-27T09:37:14;99521.28;;;-1.77;61.13
76205;BME280;64986;55.672;37.628;2023-02-27T09:39:41;99529.50;;;-1.72;61.88
76205;BME280;64986;55.672;37.628;2023-02-27T09:42:23;99529.09;;;-2.20;61.21
76205;BME280;64986;55.672;37.628;2023-02-27T09:44:56;99518.84;;;-1.58;60.61
76205;BME280;64986;55.672;37.628;2023-02-27T09:47:45;99520.09;;;-1.94;61.30
76205;BME280;64986;55.672;37.628;2023-02-27T09:52:49;99539.09;;;-1.74;61.96
76205;BME280;64986;55.672;37.628;2023-02-27T09:55:19;99531.75;;;-1.79;60.81
76205;BME280;64986;55.672;37.628;2023-02-27T09:57:47;99538.91;;;-1.61;61.02
76205;BME280;64986;55.672;37.628;2023-02-27T10:03:11;99536.03;;;-1.47;60.87
76205;BME280;64986;55.672;37.628;2023-02-27T10:05:51;99540.94;;;-1.65;61.30
76205;BME280;64986;55.672;37.628;2023-02-27T10:08:32;99538.59;;;-1.68;60.64
76205;BME280;64986;55.672;37.628;2023-02-27T10:11:20;99553.84;;;-1.65;60.57
76205;BME280;64986;55.672;37.628;2023-02-27T10:16:16;99570.28;;;-1.98;61.20
76205;BME280;64986;55.672;37.628;2023-02-27T10:21:17;99546.00;;;-1.96;60.84
76205;BME280;64986;55.672;37.628;2023-02-27T10:23:53;99560.69;;;-2.51;62.63
76205;BME280;64986;55.672;37.628;2023-02-27T10:26:25;99555.75;;;-2.42;63.73
76205;BME280;64986;55.672;37.628;2023-02-27T10:28:52;99547.66;;;-1.94;63.35
76205;BME280;64986;55.672;37.628;2023-02-27T10:31:24;99551.91;;;-1.73;62.52
76205;BME280;64986;55.672;37.628;2023-02-27T10:33:51;99580.78;;;-1.79;61.95
76205;BME280;64986;55.672;37.628;2023-02-27T10:36:18;99578.41;;;-1.50;61.13
76205;BME280;64986;55.672;37.628;2023-02-27T10:38:49;99561.44;;;-1.84;60.94
76205;BME280;64986;55.672;37.628;2023-02-27T10:41:19;99559.00;;;-1.65;60.71
76205;BME280;64986;55.672;37.628;2023-02-27T10:43:45;99563.47;;;-1.46;60.25
76205;BME280;64986;55.672;37.628;2023-02-27T10:46:24;99577.81;;;-1.53;60.98
76205;BME280;64986;55.672;37.628;2023-02-27T10:48:51;99572.34;;;-1.60;60.02
76205;BME280;64986;55.672;37.628;2023-02-27T10:51:28;99599.50;;;-1.24;60.86
76205;BME280;64986;55.672;37.628;2023-02-27T10:56:46;99597.25;;;-2.02;61.13
76205;BME280;64986;55.672;37.628;2023-02-27T10:59:25;99591.88;;;-1.46;60.73
76205;BME280;64986;55.672;37.628;2023-02-27T11:01:58;99589.34;;;-1.36;60.20
76205;BME280;64986;55.672;37.628;2023-02-27T11:04:37;99595.84;;;-1.74;61.25
76205;BME280;64986;55.672;37.628;2023-02-27T11:07:06;99591.38;;;-1.19;60.40
76205;BME280;64986;55.672;37.628;2023-02-27T11:09:33;99605.41;;;-1.33;60.78
76205;BME280;64986;55.672;37.628;2023-02-27T11:12:26;99596.53;;;-1.40;60.96
76205;BME280;64986;55.672;37.628;2023-02-27T11:14:54;99604.94;;;-1.80;61.76
76205;BME280;64986;55.672;37.628;2023-02-27T11:19:54;99612.84;;;-1.19;59.77
76205;BME280;64986;55.672;37.628;2023-02-27T11:22:22;99615.88;;;0.07;58.71
76205;BME280;64986;55.672;37.628;2023-02-27T11:24:50;99611.75;;;1.01;56.45
76205;BME280;64986;55.672;37.628;2023-02-27T11:27:22;99611.75;;;1.01;56.45
76205;BME280;64986;55.672;37.628;2023-02-27T11:32:44;99617.91;;;-0.56;58.05
76205;BME280;64986;55.672;37.628;2023-02-27T11:35:33;99630.69;;;-0.64;59.34
76205;BME280;64986;55.672;37.628;2023-02-27T11:38:02;99621.72;;;-0.60;58.85
76205;BME280;64986;55.672;37.628;2023-02-27T11:40:33;99629.72;;;-0.63;59.93
76205;BME280;64986;55.672;37.628;2023-02-27T11:43:14;99608.38;;;-0.65;59.85
76205;BME280;64986;55.672;37.628;2023-02-27T11:45:42;99627.34;;;-0.76;60.47
76205;BME280;64986;55.672;37.628;2023-02-27T11:53:52;99640.38;;;-1.61;63.12
76205;BME280;64986;55.672;37.628;2023-02-27T11:56:29;99646.41;;;-1.40;62.08
76205;BME280;64986;55.672;37.628;2023-02-27T12:12:56;99678.72;;;-2.00;63.38
76205;BME280;64986;55.672;37.628;2023-02-27T12:15:28;99646.00;;;-1.88;62.77
76205;BME280;64986;55.672;37.628;2023-02-27T12:18:05;99676.75;;;-1.96;62.66
76205;BME280;64986;55.672;37.628;2023-02-27T12:26:00;99663.72;;;-2.06;62.99
76205;BME280;64986;55.672;37.628;2023-02-27T12:28:50;99671.94;;;-2.01;63.16
76205;BME280;64986;55.672;37.628;2023-02-27T12:31:30;99676.16;;;-1.88;62.42
76205;BME280;64986;55.672;37.628;2023-02-27T12:34:23;99665.88;;;-2.33;62.79
76205;BME280;64986;55.672;37.628;2023-02-27T12:37:04;99669.03;;;-2.30;61.70
76205;BME280;64986;55.672;37.628;2023-02-27T12:39:35;99686.38;;;-2.43;62.92
76205;BME280;64986;55.672;37.628;2023-02-27T12:50:22;99701.81;;;-1.98;60.55
76205;BME280;64986;55.672;37.628;2023-02-27T12:55:47;99707.75;;;-1.75;60.18
76205;BME280;64986;55.672;37.628;2023-02-27T12:58:31;99709.41;;;-1.74;59.62
76205;BME280;64986;55.672;37.628;2023-02-27T13:01:02;99711.91;;;-2.06;59.53
76205;BME280;64986;55.672;37.628;2023-02-27T13:08:50;99718.25;;;-2.10;59.58
76205;BME280;64986;55.672;37.628;2023-02-27T13:17:00;99739.56;;;-1.97;60.67
76205;BME280;64986;55.672;37.628;2023-02-27T13:24:43;99728.69;;;-2.23;60.88
76205;BME280;64986;55.672;37.628;2023-02-27T13:27:25;99735.34;;;-1.98;59.71
76205;BME280;64986;55.672;37.628;2023-02-27T13:32:31;99742.50;;;-2.02;59.94
76205;BME280;64986;55.672;37.628;2023-02-27T13:35:46;99734.56;;;-2.10;59.46
76205;BME280;64986;55.672;37.628;2023-02-27T13:38:32;99742.41;;;-2.11;60.02
76205;BME280;64986;55.672;37.628;2023-02-27T13:43:47;99743.28;;;-2.57;60.57
76205;BME280;64986;55.672;37.628;2023-02-27T13:51:46;99765.31;;;-2.64;60.27
76205;BME280;64986;55.672;37.628;2023-02-27T13:59:37;99742.69;;;-2.72;60.87
76205;BME280;64986;55.672;37.628;2023-02-27T14:04:37;99771.06;;;-2.61;61.00
76205;BME280;64986;55.672;37.628;2023-02-27T14:07:12;99766.53;;;-2.81;61.48
76205;BME280;64986;55.672;37.628;2023-02-27T14:09:44;99787.06;;;-2.80;61.81
76205;BME280;64986;55.672;37.628;2023-02-27T14:12:45;99788.00;;;-2.69;61.57
76205;BME280;64986;55.672;37.628;2023-02-27T14:17:43;99778.91;;;-2.97;62.21
76205;BME280;64986;55.672;37.628;2023-02-27T14:22:39;99796.94;;;-2.97;62.37
76205;BME280;64986;55.672;37.628;2023-02-27T14:25:19;99789.03;;;-2.83;62.64
76205;BME280;64986;55.672;37.628;2023-02-27T14:27:57;99822.78;;;-2.99;62.51
76205;BME280;64986;55.672;37.628;2023-02-27T14:30:43;99813.44;;;-3.00;62.79
76205;BME280;64986;55.672;37.628;2023-02-27T14:35:56;99806.28;;;-2.96;61.83
76205;BME280;64986;55.672;37.628;2023-02-27T14:38:23;99811.94;;;-3.15;62.63
76205;BME280;64986;55.672;37.628;2023-02-27T14:41:27;99837.00;;;-3.17;61.96
76205;BME280;64986;55.672;37.628;2023-02-27T14:43:53;99821.34;;;-3.03;61.43
76205;BME280;64986;55.672;37.628;2023-02-27T14:46:38;99844.75;;;-3.30;61.95
76205;BME280;64986;55.672;37.628;2023-02-27T14:49:18;99840.56;;;-3.44;62.92
76205;BME280;64986;55.672;37.628;2023-02-27T14:51:44;99827.59;;;-3.18;62.31
76205;BME280;64986;55.672;37.628;2023-02-27T14:54:19;99847.84;;;-3.38;62.70
76205;BME280;64986;55.672;37.628;2023-02-27T14:57:04;99842.88;;;-3.28;63.54
76205;BME280;64986;55.672;37.628;2023-02-27T14:59:31;99854.84;;;-3.03;61.46
76205;BME280;64986;55.672;37.628;2023-02-27T15:01:59;99844.75;;;-3.30;62.16
76205;BME280;64986;55.672;37.628;2023-02-27T15:04:30;99858.13;;;-3.25;62.44
76205;BME280;64986;55.672;37.628;2023-02-27T15:06:57;99863.13;;;-3.47;63.94
76205;BME280;64986;55.672;37.628;2023-02-27T15:09:42;99859.91;;;-3.38;64.33
76205;BME280;64986;55.672;37.628;2023-02-27T15:12:16;99862.13;;;-3.33;63.76
76205;BME280;64986;55.672;37.628;2023-02-27T15:14:46;99875.78;;;-3.08;63.04
76205;BME280;64986;55.672;37.628;2023-02-27T15:17:40;99882.97;;;-3.37;63.61
76205;BME280;64986;55.672;37.628;2023-02-27T15:20:26;99883.34;;;-3.30;63.61
76205;BME280;64986;55.672;37.628;2023-02-27T15:22:55;99855.50;;;-3.12;63.22
76205;BME280;64986;55.672;37.628;2023-02-27T15:25:30;99872.13;;;-3.29;63.69
76205;BME280;64986;55.672;37.628;2023-02-27T15:28:00;99879.91;;;-3.18;63.37
76205;BME280;64986;55.672;37.628;2023-02-27T15:30:26;99882.31;;;-3.27;63.86
76205;BME280;64986;55.672;37.628;2023-02-27T15:32:52;99886.84;;;-2.94;63.40
76205;BME280;64986;55.672;37.628;2023-02-27T15:35:22;99886.22;;;-3.22;63.37
76205;BME280;64986;55.672;37.628;2023-02-27T15:37:58;99892.72;;;-3.29;63.83
76205;BME280;64986;55.672;37.628;2023-02-27T15:40:28;99893.13;;;-3.22;63.83
76205;BME280;64986;55.672;37.628;2023-02-27T15:42:54;99899.34;;;-3.01;63.09
76205;BME280;64986;55.672;37.628;2023-02-27T15:45:24;99896.91;;;-3.15;63.25